sensor_id;sensor_type;location;lat;lon;timestamp;P1;durP1;ratioP1;P2;durP2;ratioP2
47912;SDS011;33676;51.006;17.180;2023-01-24T00:01:23;52.20;;;33.80;;
47912;SDS011;33676;51.006;17.180;2023-01-24T00:03:52;44.90;;;30.00;;
47912;SDS011;33676;51.006;17.180;2023-01-24T00:06:21;46.00;;;31.00;;
47912;SDS011;33676;51.006;17.180;2023-01-24T00:08:49;49.70;;;32.10;;
47912;SDS011;33676;51.006;17.180;2023-01-24T00:11:18;51.10;;;32.30;;
47912;SDS011;33676;51.006;17.180;2023-01-24T00:13:46;54.90;;;31.50;;
47912;SDS011;33676;51.006;17.180;2023-01-24T00:16:17;49.90;;;31.60;;
47912;SDS011;33676;51.006;17.180;2023-01-24T00:18:48;46.70;;;31.80;;
47912;SDS011;33676;51.006;17.180;2023-01-24T00:21:20;53.00;;;34.20;;
47912;SDS011;33676;51.006;17.180;2023-01-24T00:23:52;52.60;;;33.10;;
47912;SDS011;33676;51.006;17.180;2023-01-24T00:26:22;56.30;;;31.70;;
47912;SDS011;33676;51.006;17.180;2023-01-24T00:28:52;44.50;;;30.60;;
47912;SDS011;33676;51.006;17.180;2023-01-24T00:31:21;54.90;;;32.20;;
47912;SDS011;33676;51.006;17.180;2023-01-24T00:33:49;52.10;;;31.20;;
47912;SDS011;33676;51.006;17.180;2023-01-24T00:36:18;45.10;;;29.60;;
47912;SDS011;33676;51.006;17.180;2023-01-24T00:38:46;47.30;;;28.80;;
47912;SDS011;33676;51.006;17.180;2023-01-24T00:41:15;41.70;;;28.70;;
47912;SDS011;33676;51.006;17.180;2023-01-24T00:43:43;45.40;;;30.00;;
47912;SDS011;33676;51.006;17.180;2023-01-24T00:46:12;49.70;;;33.40;;
47912;SDS011;33676;51.006;17.180;2023-01-24T00:48:40;53.90;;;31.50;;
47912;SDS011;33676;51.006;17.180;2023-01-24T00:51:09;55.40;;;33.50;;
47912;SDS011;33676;51.006;17.180;2023-01-24T00:53:37;44.70;;;29.40;;
47912;SDS011;33676;51.006;17.180;2023-01-24T00:56:06;47.00;;;31.80;;
47912;SDS011;33676;51.006;17.180;2023-01-24T00:58:35;43.80;;;29.60;;
47912;SDS011;33676;51.006;17.180;2023-01-24T01:01:03;51.60;;;33.90;;
47912;SDS011;33676;51.006;17.180;2023-01-24T01:03:32;51.90;;;32.10;;
47912;SDS011;33676;51.006;17.180;2023-01-24T01:06:03;51.10;;;31.10;;
47912;SDS011;33676;51.006;17.180;2023-01-24T01:08:37;51.10;;;33.60;;
47912;SDS011;33676;51.006;17.180;2023-01-24T01:11:06;46.20;;;29.00;;
47912;SDS011;33676;51.006;17.180;2023-01-24T01:13:35;47.50;;;29.40;;
47912;SDS011;33676;51.006;17.180;2023-01-24T01:16:14;53.60;;;33.30;;
47912;SDS011;33676;51.006;17.180;2023-01-24T01:18:47;44.20;;;29.50;;
47912;SDS011;33676;51.006;17.180;2023-01-24T01:21:17;51.80;;;29.80;;
47912;SDS011;33676;51.006;17.180;2023-01-24T01:23:47;47.80;;;33.80;;
47912;SDS011;33676;51.006;17.180;2023-01-24T01:26:18;52.80;;;34.00;;
47912;SDS011;33676;51.006;17.180;2023-01-24T01:28:49;53.40;;;33.90;;
47912;SDS011;33676;51.006;17.180;2023-01-24T01:31:17;52.30;;;32.10;;
47912;SDS011;33676;51.006;17.180;2023-01-24T01:33:46;45.30;;;31.50;;
47912;SDS011;33676;51.006;17.180;2023-01-24T01:36:14;51.50;;;32.10;;
47912;SDS011;33676;51.006;17.180;2023-01-24T01:38:43;50.50;;;30.60;;
47912;SDS011;33676;51.006;17.180;2023-01-24T01:41:14;45.50;;;30.10;;
47912;SDS011;33676;51.006;17.180;2023-01-24T01:43:43;44.20;;;30.10;;
47912;SDS011;33676;51.006;17.180;2023-01-24T01:46:43;47.90;;;32.60;;
47912;SDS011;33676;51.006;17.180;2023-01-24T01:49:19;48.60;;;31.80;;
47912;SDS011;33676;51.006;17.180;2023-01-24T01:51:55;52.30;;;34.00;;
47912;SDS011;33676;51.006;17.180;2023-01-24T01:54:34;45.80;;;29.50;;
47912;SDS011;33676;51.006;17.180;2023-01-24T01:57:09;47.90;;;30.80;;
47912;SDS011;33676;51.006;17.180;2023-01-24T01:59:51;48.80;;;32.20;;
47912;SDS011;33676;51.006;17.180;2023-01-24T02:02:24;51.30;;;33.70;;
47912;SDS011;33676;51.006;17.180;2023-01-24T02:04:57;54.40;;;32.60;;
47912;SDS011;33676;51.006;17.180;2023-01-24T02:09:56;49.20;;;33.60;;
47912;SDS011;33676;51.006;17.180;2023-01-24T02:12:45;49.30;;;31.40;;
47912;SDS011;33676;51.006;17.180;2023-01-24T02:15:18;45.80;;;32.20;;
47912;SDS011;33676;51.006;17.180;2023-01-24T02:18:07;48.60;;;32.20;;
47912;SDS011;33676;51.006;17.180;2023-01-24T02:20:45;47.40;;;30.90;;
47912;SDS011;33676;51.006;17.180;2023-01-24T02:26:17;49.50;;;31.20;;
47912;SDS011;33676;51.006;17.180;2023-01-24T02:28:55;36.20;;;24.30;;
47912;SDS011;33676;51.006;17.180;2023-01-24T02:31:28;47.90;;;31.40;;
47912;SDS011;33676;51.006;17.180;2023-01-24T02:33:57;50.40;;;33.40;;
47912;SDS011;33676;51.006;17.180;2023-01-24T02:36:30;44.40;;;31.00;;
47912;SDS011;33676;51.006;17.180;2023-01-24T02:39:09;41.90;;;29.80;;
47912;SDS011;33676;51.006;17.180;2023-01-24T02:41:49;45.90;;;31.20;;
47912;SDS011;33676;51.006;17.180;2023-01-24T02:44:50;48.80;;;31.20;;
47912;SDS011;33676;51.006;17.180;2023-01-24T02:47:26;39.90;;;29.40;;
47912;SDS011;33676;51.006;17.180;2023-01-24T02:50:01;47.70;;;30.20;;
47912;SDS011;33676;51.006;17.180;2023-01-24T02:52:30;47.00;;;31.30;;
47912;SDS011;33676;51.006;17.180;2023-01-24T02:55:17;50.00;;;32.20;;
47912;SDS011;33676;51.006;17.180;2023-01-24T02:57:49;42.90;;;29.90;;
47912;SDS011;33676;51.006;17.180;2023-01-24T03:00:37;47.30;;;31.90;;
47912;SDS011;33676;51.006;17.180;2023-01-24T03:03:08;44.00;;;31.50;;
47912;SDS011;33676;51.006;17.180;2023-01-24T03:05:37;43.40;;;30.90;;
47912;SDS011;33676;51.006;17.180;2023-01-24T03:08:14;47.30;;;30.40;;
47912;SDS011;33676;51.006;17.180;2023-01-24T03:10:43;43.60;;;29.20;;
47912;SDS011;33676;51.006;17.180;2023-01-24T03:13:14;46.70;;;31.00;;
47912;SDS011;33676;51.006;17.180;2023-01-24T03:16:02;48.80;;;31.10;;
47912;SDS011;33676;51.006;17.180;2023-01-24T03:18:50;46.60;;;29.40;;
47912;SDS011;33676;51.006;17.180;2023-01-24T03:21:38;42.30;;;29.90;;
47912;SDS011;33676;51.006;17.180;2023-01-24T03:24:25;45.60;;;28.40;;
47912;SDS011;33676;51.006;17.180;2023-01-24T03:27:13;42.80;;;30.20;;
47912;SDS011;33676;51.006;17.180;2023-01-24T03:30:01;48.30;;;30.70;;
47912;SDS011;33676;51.006;17.180;2023-01-24T03:32:49;48.80;;;32.50;;
47912;SDS011;33676;51.006;17.180;2023-01-24T03:35:36;46.70;;;30.50;;
47912;SDS011;33676;51.006;17.180;2023-01-24T03:38:04;44.20;;;30.60;;
47912;SDS011;33676;51.006;17.180;2023-01-24T03:40:53;46.10;;;30.80;;
47912;SDS011;33676;51.006;17.180;2023-01-24T03:43:21;44.80;;;31.10;;
47912;SDS011;33676;51.006;17.180;2023-01-24T03:45:51;43.10;;;30.10;;
47912;SDS011;33676;51.006;17.180;2023-01-24T03:48:22;45.00;;;30.60;;
47912;SDS011;33676;51.006;17.180;2023-01-24T03:50:54;45.60;;;31.40;;
47912;SDS011;33676;51.006;17.180;2023-01-24T03:53:41;43.30;;;30.20;;
47912;SDS011;33676;51.006;17.180;2023-01-24T03:56:09;41.60;;;30.40;;
47912;SDS011;33676;51.006;17.180;2023-01-24T03:58:37;44.10;;;29.20;;
47912;SDS011;33676;51.006;17.180;2023-01-24T04:01:06;44.00;;;29.60;;
47912;SDS011;33676;51.006;17.180;2023-01-24T04:03:35;44.20;;;30.90;;
47912;SDS011;33676;51.006;17.180;2023-01-24T04:06:03;43.80;;;28.90;;
47912;SDS011;33676;51.006;17.180;2023-01-24T04:08:32;48.50;;;30.60;;
47912;SDS011;33676;51.006;17.180;2023-01-24T04:11:00;44.60;;;30.70;;
47912;SDS011;33676;51.006;17.180;2023-01-24T04:13:28;45.10;;;30.00;;
47912;SDS011;33676;51.006;17.180;2023-01-24T04:15:57;40.60;;;28.10;;
47912;SDS011;33676;51.006;17.180;2023-01-24T04:18:25;47.60;;;30.90;;
47912;SDS011;33676;51.006;17.180;2023-01-24T04:20:54;41.40;;;28.50;;
47912;SDS011;33676;51.006;17.180;2023-01-24T04:23:22;44.20;;;30.30;;
47912;SDS011;33676;51.006;17.180;2023-01-24T04:25:50;42.00;;;30.90;;
47912;SDS011;33676;51.006;17.180;2023-01-24T04:28:23;49.00;;;32.50;;
47912;SDS011;33676;51.006;17.180;2023-01-24T04:30:58;44.10;;;30.20;;
47912;SDS011;33676;51.006;17.180;2023-01-24T04:33:28;44.00;;;26.80;;
47912;SDS011;33676;51.006;17.180;2023-01-24T04:35:58;40.40;;;29.50;;
47912;SDS011;33676;51.006;17.180;2023-01-24T04:38:26;43.60;;;27.60;;
47912;SDS011;33676;51.006;17.180;2023-01-24T04:41:01;47.00;;;30.80;;
47912;SDS011;33676;51.006;17.180;2023-01-24T04:43:30;41.30;;;28.90;;
47912;SDS011;33676;51.006;17.180;2023-01-24T04:45:58;47.40;;;27.20;;
47912;SDS011;33676;51.006;17.180;2023-01-24T04:48:26;46.70;;;29.60;;
47912;SDS011;33676;51.006;17.180;2023-01-24T04:50:59;43.20;;;29.80;;
47912;SDS011;33676;51.006;17.180;2023-01-24T04:53:28;43.80;;;31.40;;
47912;SDS011;33676;51.006;17.180;2023-01-24T04:56:01;49.40;;;32.30;;
47912;SDS011;33676;51.006;17.180;2023-01-24T04:58:30;42.80;;;29.60;;
47912;SDS011;33676;51.006;17.180;2023-01-24T05:00:59;49.20;;;31.00;;
47912;SDS011;33676;51.006;17.180;2023-01-24T05:03:31;45.30;;;30.60;;
47912;SDS011;33676;51.006;17.180;2023-01-24T05:05:59;44.60;;;29.80;;
47912;SDS011;33676;51.006;17.180;2023-01-24T05:08:28;52.30;;;32.50;;
47912;SDS011;33676;51.006;17.180;2023-01-24T05:11:00;52.40;;;32.40;;
47912;SDS011;33676;51.006;17.180;2023-01-24T05:13:30;48.50;;;31.40;;
47912;SDS011;33676;51.006;17.180;2023-01-24T05:15:58;48.90;;;29.50;;
47912;SDS011;33676;51.006;17.180;2023-01-24T05:18:27;48.30;;;32.50;;
47912;SDS011;33676;51.006;17.180;2023-01-24T05:20:55;52.20;;;31.20;;
47912;SDS011;33676;51.006;17.180;2023-01-24T05:23:23;47.60;;;30.90;;
47912;SDS011;33676;51.006;17.180;2023-01-24T05:25:51;44.50;;;30.80;;
47912;SDS011;33676;51.006;17.180;2023-01-24T05:28:20;43.60;;;28.50;;
47912;SDS011;33676;51.006;17.180;2023-01-24T05:30:48;41.00;;;29.10;;
47912;SDS011;33676;51.006;17.180;2023-01-24T05:33:16;46.20;;;30.00;;
47912;SDS011;33676;51.006;17.180;2023-01-24T05:35:45;41.60;;;27.90;;
47912;SDS011;33676;51.006;17.180;2023-01-24T05:38:13;39.00;;;29.40;;
47912;SDS011;33676;51.006;17.180;2023-01-24T05:40:41;44.10;;;28.50;;
47912;SDS011;33676;51.006;17.180;2023-01-24T05:43:10;40.00;;;27.70;;
47912;SDS011;33676;51.006;17.180;2023-01-24T05:45:38;41.00;;;27.40;;
47912;SDS011;33676;51.006;17.180;2023-01-24T05:48:06;42.00;;;27.30;;
47912;SDS011;33676;51.006;17.180;2023-01-24T05:50:35;43.50;;;29.10;;
47912;SDS011;33676;51.006;17.180;2023-01-24T05:53:04;36.90;;;27.00;;
47912;SDS011;33676;51.006;17.180;2023-01-24T05:55:33;46.20;;;28.80;;
47912;SDS011;33676;51.006;17.180;2023-01-24T05:58:02;38.90;;;28.50;;
47912;SDS011;33676;51.006;17.180;2023-01-24T06:00:30;40.40;;;27.10;;
47912;SDS011;33676;51.006;17.180;2023-01-24T06:03:02;42.10;;;28.10;;
47912;SDS011;33676;51.006;17.180;2023-01-24T06:05:31;37.10;;;25.80;;
47912;SDS011;33676;51.006;17.180;2023-01-24T06:08:00;43.20;;;28.20;;
47912;SDS011;33676;51.006;17.180;2023-01-24T06:10:28;43.70;;;28.80;;
47912;SDS011;33676;51.006;17.180;2023-01-24T06:12:59;37.40;;;27.20;;
47912;SDS011;33676;51.006;17.180;2023-01-24T06:15:28;42.00;;;27.40;;
47912;SDS011;33676;51.006;17.180;2023-01-24T06:17:56;41.20;;;27.70;;
47912;SDS011;33676;51.006;17.180;2023-01-24T06:20:25;45.40;;;27.70;;
47912;SDS011;33676;51.006;17.180;2023-01-24T06:23:00;39.90;;;27.00;;
47912;SDS011;33676;51.006;17.180;2023-01-24T06:25:32;40.50;;;27.00;;
47912;SDS011;33676;51.006;17.180;2023-01-24T06:28:01;46.40;;;30.20;;
47912;SDS011;33676;51.006;17.180;2023-01-24T06:30:29;37.30;;;26.90;;
47912;SDS011;33676;51.006;17.180;2023-01-24T06:36:06;40.20;;;27.10;;
47912;SDS011;33676;51.006;17.180;2023-01-24T06:38:56;39.20;;;27.50;;
47912;SDS011;33676;51.006;17.180;2023-01-24T06:41:26;40.60;;;27.80;;
47912;SDS011;33676;51.006;17.180;2023-01-24T06:43:55;37.60;;;28.20;;
47912;SDS011;33676;51.006;17.180;2023-01-24T06:46:24;43.70;;;29.50;;
47912;SDS011;33676;51.006;17.180;2023-01-24T06:48:52;39.20;;;28.50;;
47912;SDS011;33676;51.006;17.180;2023-01-24T06:51:21;45.40;;;28.90;;
47912;SDS011;33676;51.006;17.180;2023-01-24T06:53:49;40.60;;;27.00;;
47912;SDS011;33676;51.006;17.180;2023-01-24T06:56:18;43.70;;;28.10;;
47912;SDS011;33676;51.006;17.180;2023-01-24T06:58:46;44.40;;;28.60;;
47912;SDS011;33676;51.006;17.180;2023-01-24T07:01:15;49.60;;;29.70;;
47912;SDS011;33676;51.006;17.180;2023-01-24T07:03:44;44.00;;;30.10;;
47912;SDS011;33676;51.006;17.180;2023-01-24T07:06:12;42.50;;;28.40;;
47912;SDS011;33676;51.006;17.180;2023-01-24T07:08:41;44.30;;;29.20;;
47912;SDS011;33676;51.006;17.180;2023-01-24T07:11:09;42.90;;;29.30;;
47912;SDS011;33676;51.006;17.180;2023-01-24T07:13:38;42.10;;;27.10;;
47912;SDS011;33676;51.006;17.180;2023-01-24T07:16:07;45.80;;;30.70;;
47912;SDS011;33676;51.006;17.180;2023-01-24T07:18:35;42.30;;;28.20;;
47912;SDS011;33676;51.006;17.180;2023-01-24T07:21:06;43.70;;;28.40;;
47912;SDS011;33676;51.006;17.180;2023-01-24T07:23:36;43.80;;;30.50;;
47912;SDS011;33676;51.006;17.180;2023-01-24T07:26:05;43.50;;;30.20;;
47912;SDS011;33676;51.006;17.180;2023-01-24T07:28:38;42.90;;;30.30;;
47912;SDS011;33676;51.006;17.180;2023-01-24T07:31:07;45.90;;;29.80;;
47912;SDS011;33676;51.006;17.180;2023-01-24T07:33:38;48.40;;;30.80;;
47912;SDS011;33676;51.006;17.180;2023-01-24T07:36:11;42.50;;;30.70;;
47912;SDS011;33676;51.006;17.180;2023-01-24T07:38:41;46.10;;;30.80;;
47912;SDS011;33676;51.006;17.180;2023-01-24T07:41:09;44.20;;;31.30;;
47912;SDS011;33676;51.006;17.180;2023-01-24T07:43:38;50.00;;;30.30;;
47912;SDS011;33676;51.006;17.180;2023-01-24T07:46:06;45.70;;;29.80;;
47912;SDS011;33676;51.006;17.180;2023-01-24T07:48:35;45.70;;;32.90;;
47912;SDS011;33676;51.006;17.180;2023-01-24T07:51:04;38.60;;;29.90;;
47912;SDS011;33676;51.006;17.180;2023-01-24T07:53:32;46.30;;;31.50;;
47912;SDS011;33676;51.006;17.180;2023-01-24T07:56:01;46.90;;;32.20;;
47912;SDS011;33676;51.006;17.180;2023-01-24T07:58:30;48.40;;;31.80;;
47912;SDS011;33676;51.006;17.180;2023-01-24T08:00:59;47.00;;;31.90;;
47912;SDS011;33676;51.006;17.180;2023-01-24T08:03:28;48.40;;;32.10;;
47912;SDS011;33676;51.006;17.180;2023-01-24T08:05:56;53.70;;;32.10;;
47912;SDS011;33676;51.006;17.180;2023-01-24T08:08:24;50.50;;;32.50;;
47912;SDS011;33676;51.006;17.180;2023-01-24T08:10:53;49.40;;;34.70;;
47912;SDS011;33676;51.006;17.180;2023-01-24T08:13:21;57.30;;;37.40;;
47912;SDS011;33676;51.006;17.180;2023-01-24T08:15:50;59.60;;;37.00;;
47912;SDS011;33676;51.006;17.180;2023-01-24T08:18:19;50.90;;;34.50;;
47912;SDS011;33676;51.006;17.180;2023-01-24T08:20:47;44.60;;;30.90;;
47912;SDS011;33676;51.006;17.180;2023-01-24T08:23:16;50.60;;;32.50;;
47912;SDS011;33676;51.006;17.180;2023-01-24T08:25:45;48.50;;;33.30;;
47912;SDS011;33676;51.006;17.180;2023-01-24T08:28:13;41.50;;;29.80;;
47912;SDS011;33676;51.006;17.180;2023-01-24T08:30:42;49.80;;;33.50;;
47912;SDS011;33676;51.006;17.180;2023-01-24T08:33:11;44.20;;;30.50;;
47912;SDS011;33676;51.006;17.180;2023-01-24T08:35:46;48.80;;;32.90;;
47912;SDS011;33676;51.006;17.180;2023-01-24T08:38:15;48.80;;;33.90;;
47912;SDS011;33676;51.006;17.180;2023-01-24T08:40:44;46.00;;;32.70;;
47912;SDS011;33676;51.006;17.180;2023-01-24T08:43:17;46.80;;;32.80;;
47912;SDS011;33676;51.006;17.180;2023-01-24T08:45:46;52.20;;;36.10;;
47912;SDS011;33676;51.006;17.180;2023-01-24T08:48:15;52.00;;;36.60;;
47912;SDS011;33676;51.006;17.180;2023-01-24T08:50:43;53.40;;;36.20;;
47912;SDS011;33676;51.006;17.180;2023-01-24T08:53:12;48.80;;;34.70;;
47912;SDS011;33676;51.006;17.180;2023-01-24T08:55:42;52.70;;;37.60;;
47912;SDS011;33676;51.006;17.180;2023-01-24T08:58:11;56.10;;;36.50;;
47912;SDS011;33676;51.006;17.180;2023-01-24T09:00:39;45.80;;;31.60;;
47912;SDS011;33676;51.006;17.180;2023-01-24T09:03:11;49.40;;;32.10;;
47912;SDS011;33676;51.006;17.180;2023-01-24T09:05:42;49.00;;;34.20;;
47912;SDS011;33676;51.006;17.180;2023-01-24T09:08:11;47.40;;;33.60;;
47912;SDS011;33676;51.006;17.180;2023-01-24T09:10:39;53.50;;;35.70;;
47912;SDS011;33676;51.006;17.180;2023-01-24T09:13:08;51.20;;;34.00;;
47912;SDS011;33676;51.006;17.180;2023-01-24T09:15:36;48.40;;;33.70;;
47912;SDS011;33676;51.006;17.180;2023-01-24T09:18:05;47.10;;;34.50;;
47912;SDS011;33676;51.006;17.180;2023-01-24T09:20:33;49.60;;;34.50;;
47912;SDS011;33676;51.006;17.180;2023-01-24T09:23:12;51.70;;;35.60;;
47912;SDS011;33676;51.006;17.180;2023-01-24T09:25:49;49.70;;;32.50;;
47912;SDS011;33676;51.006;17.180;2023-01-24T09:28:20;48.40;;;34.50;;
47912;SDS011;33676;51.006;17.180;2023-01-24T09:30:49;47.80;;;33.50;;
47912;SDS011;33676;51.006;17.180;2023-01-24T09:33:18;48.50;;;33.40;;
47912;SDS011;33676;51.006;17.180;2023-01-24T09:35:55;52.40;;;35.60;;
47912;SDS011;33676;51.006;17.180;2023-01-24T09:38:26;50.60;;;33.70;;
47912;SDS011;33676;51.006;17.180;2023-01-24T09:41:07;52.40;;;34.10;;
47912;SDS011;33676;51.006;17.180;2023-01-24T09:43:59;51.90;;;32.30;;
47912;SDS011;33676;51.006;17.180;2023-01-24T09:46:43;45.50;;;33.20;;
47912;SDS011;33676;51.006;17.180;2023-01-24T09:49:33;48.00;;;33.30;;
47912;SDS011;33676;51.006;17.180;2023-01-24T09:52:12;55.70;;;34.50;;
47912;SDS011;33676;51.006;17.180;2023-01-24T09:54:53;51.80;;;32.10;;
47912;SDS011;33676;51.006;17.180;2023-01-24T09:57:32;43.80;;;31.40;;
47912;SDS011;33676;51.006;17.180;2023-01-24T10:00:27;48.40;;;31.40;;
47912;SDS011;33676;51.006;17.180;2023-01-24T10:02:59;45.70;;;29.80;;
47912;SDS011;33676;51.006;17.180;2023-01-24T10:05:38;47.40;;;31.50;;
47912;SDS011;33676;51.006;17.180;2023-01-24T10:14:09;42.50;;;29.20;;
47912;SDS011;33676;51.006;17.180;2023-01-24T10:23:00;46.40;;;29.70;;
47912;SDS011;33676;51.006;17.180;2023-01-24T10:25:50;49.40;;;32.20;;
47912;SDS011;33676;51.006;17.180;2023-01-24T10:28:28;45.70;;;30.60;;
47912;SDS011;33676;51.006;17.180;2023-01-24T10:31:06;47.50;;;33.00;;
47912;SDS011;33676;51.006;17.180;2023-01-24T10:33:44;44.50;;;31.20;;
47912;SDS011;33676;51.006;17.180;2023-01-24T10:39:12;48.40;;;32.50;;
47912;SDS011;33676;51.006;17.180;2023-01-24T10:41:41;47.40;;;31.90;;
47912;SDS011;33676;51.006;17.180;2023-01-24T10:44:18;48.90;;;32.70;;
47912;SDS011;33676;51.006;17.180;2023-01-24T10:47:17;48.10;;;32.90;;
47912;SDS011;33676;51.006;17.180;2023-01-24T10:50:14;41.30;;;30.30;;
47912;SDS011;33676;51.006;17.180;2023-01-24T10:52:44;48.70;;;33.10;;
47912;SDS011;33676;51.006;17.180;2023-01-24T10:55:33;43.60;;;30.70;;
47912;SDS011;33676;51.006;17.180;2023-01-24T10:58:21;49.10;;;34.20;;
47912;SDS011;33676;51.006;17.180;2023-01-24T11:00:56;53.90;;;33.10;;
47912;SDS011;33676;51.006;17.180;2023-01-24T11:03:28;44.40;;;33.40;;
47912;SDS011;33676;51.006;17.180;2023-01-24T11:05:58;46.60;;;33.20;;
47912;SDS011;33676;51.006;17.180;2023-01-24T11:08:37;48.20;;;33.90;;
47912;SDS011;33676;51.006;17.180;2023-01-24T11:11:19;44.90;;;31.70;;
47912;SDS011;33676;51.006;17.180;2023-01-24T11:13:55;47.70;;;31.40;;
47912;SDS011;33676;51.006;17.180;2023-01-24T11:19:03;43.80;;;27.20;;
47912;SDS011;33676;51.006;17.180;2023-01-24T11:21:34;48.60;;;32.30;;
47912;SDS011;33676;51.006;17.180;2023-01-24T11:24:18;41.80;;;29.60;;
47912;SDS011;33676;51.006;17.180;2023-01-24T11:27:13;43.20;;;31.20;;
47912;SDS011;33676;51.006;17.180;2023-01-24T11:29:43;41.50;;;28.80;;
47912;SDS011;33676;51.006;17.180;2023-01-24T11:32:42;41.50;;;30.00;;
47912;SDS011;33676;51.006;17.180;2023-01-24T11:35:21;38.80;;;27.40;;
47912;SDS011;33676;51.006;17.180;2023-01-24T11:43:41;38.40;;;29.20;;
47912;SDS011;33676;51.006;17.180;2023-01-24T11:47:00;41.70;;;29.30;;
47912;SDS011;33676;51.006;17.180;2023-01-24T11:58:25;37.00;;;26.40;;
47912;SDS011;33676;51.006;17.180;2023-01-24T12:01:18;42.70;;;30.50;;
47912;SDS011;33676;51.006;17.180;2023-01-24T12:04:41;39.10;;;28.60;;
47912;SDS011;33676;51.006;17.180;2023-01-24T12:07:25;37.40;;;27.90;;
47912;SDS011;33676;51.006;17.180;2023-01-24T12:10:19;40.90;;;26.80;;
47912;SDS011;33676;51.006;17.180;2023-01-24T12:22:18;41.90;;;28.00;;
47912;SDS011;33676;51.006;17.180;2023-01-24T12:24:55;39.50;;;29.50;;
47912;SDS011;33676;51.006;17.180;2023-01-24T12:27:31;41.60;;;31.40;;
47912;SDS011;33676;51.006;17.180;2023-01-24T12:30:26;38.50;;;27.90;;
47912;SDS011;33676;51.006;17.180;2023-01-24T12:33:13;45.10;;;31.50;;
47912;SDS011;33676;51.006;17.180;2023-01-24T12:39:19;43.40;;;30.30;;
47912;SDS011;33676;51.006;17.180;2023-01-24T12:42:02;40.50;;;28.90;;
47912;SDS011;33676;51.006;17.180;2023-01-24T12:45:02;43.40;;;30.00;;
47912;SDS011;33676;51.006;17.180;2023-01-24T12:47:51;34.00;;;25.80;;
47912;SDS011;33676;51.006;17.180;2023-01-24T12:59:10;40.50;;;29.10;;
47912;SDS011;33676;51.006;17.180;2023-01-24T13:08:28;39.90;;;28.10;;
47912;SDS011;33676;51.006;17.180;2023-01-24T13:13:30;50.50;;;35.50;;
47912;SDS011;33676;51.006;17.180;2023-01-24T13:19:56;48.70;;;33.80;;
47912;SDS011;33676;51.006;17.180;2023-01-24T13:22:45;47.90;;;33.50;;
47912;SDS011;33676;51.006;17.180;2023-01-24T13:33:55;44.00;;;30.70;;
47912;SDS011;33676;51.006;17.180;2023-01-24T13:36:34;43.60;;;32.30;;
47912;SDS011;33676;51.006;17.180;2023-01-24T13:39:06;45.30;;;31.10;;
47912;SDS011;33676;51.006;17.180;2023-01-24T13:42:21;42.60;;;30.40;;
47912;SDS011;33676;51.006;17.180;2023-01-24T13:44:51;39.00;;;30.00;;
47912;SDS011;33676;51.006;17.180;2023-01-24T13:47:22;41.20;;;29.30;;
47912;SDS011;33676;51.006;17.180;2023-01-24T14:00:52;42.20;;;29.00;;
47912;SDS011;33676;51.006;17.180;2023-01-24T14:03:36;46.40;;;32.30;;
47912;SDS011;33676;51.006;17.180;2023-01-24T14:06:09;37.70;;;28.00;;
47912;SDS011;33676;51.006;17.180;2023-01-24T14:08:44;47.70;;;32.90;;
47912;SDS011;33676;51.006;17.180;2023-01-24T14:11:21;44.50;;;32.10;;
47912;SDS011;33676;51.006;17.180;2023-01-24T14:13:55;40.40;;;29.70;;
47912;SDS011;33676;51.006;17.180;2023-01-24T14:24:57;41.20;;;28.90;;
47912;SDS011;33676;51.006;17.180;2023-01-24T14:27:38;38.80;;;27.90;;
47912;SDS011;33676;51.006;17.180;2023-01-24T14:30:38;41.70;;;30.10;;
47912;SDS011;33676;51.006;17.180;2023-01-24T14:33:27;39.20;;;29.30;;
47912;SDS011;33676;51.006;17.180;2023-01-24T14:39:20;43.00;;;31.20;;
47912;SDS011;33676;51.006;17.180;2023-01-24T14:41:57;44.40;;;30.10;;
47912;SDS011;33676;51.006;17.180;2023-01-24T14:44:33;48.90;;;31.60;;
47912;SDS011;33676;51.006;17.180;2023-01-24T14:49:36;57.00;;;33.80;;
47912;SDS011;33676;51.006;17.180;2023-01-24T14:52:25;51.30;;;35.50;;
47912;SDS011;33676;51.006;17.180;2023-01-24T14:54:59;52.20;;;35.90;;
47912;SDS011;33676;51.006;17.180;2023-01-24T14:57:31;48.30;;;36.30;;
47912;SDS011;33676;51.006;17.180;2023-01-24T15:00:21;48.40;;;35.30;;
47912;SDS011;33676;51.006;17.180;2023-01-24T15:02:53;58.50;;;38.90;;
47912;SDS011;33676;51.006;17.180;2023-01-24T15:05:35;44.90;;;32.40;;
47912;SDS011;33676;51.006;17.180;2023-01-24T15:08:11;47.20;;;34.70;;
47912;SDS011;33676;51.006;17.180;2023-01-24T15:10:43;55.80;;;35.00;;
47912;SDS011;33676;51.006;17.180;2023-01-24T15:13:23;53.10;;;37.60;;
47912;SDS011;33676;51.006;17.180;2023-01-24T15:15:55;46.40;;;33.50;;
47912;SDS011;33676;51.006;17.180;2023-01-24T15:21:03;59.20;;;39.50;;
47912;SDS011;33676;51.006;17.180;2023-01-24T15:23:32;60.20;;;42.60;;
47912;SDS011;33676;51.006;17.180;2023-01-24T15:26:24;51.90;;;37.50;;
47912;SDS011;33676;51.006;17.180;2023-01-24T15:32:36;47.20;;;31.10;;
47912;SDS011;33676;51.006;17.180;2023-01-24T15:35:16;42.90;;;30.70;;
47912;SDS011;33676;51.006;17.180;2023-01-24T15:41:24;41.10;;;31.10;;
47912;SDS011;33676;51.006;17.180;2023-01-24T15:44:13;43.40;;;29.30;;
47912;SDS011;33676;51.006;17.180;2023-01-24T15:46:43;45.50;;;30.70;;
47912;SDS011;33676;51.006;17.180;2023-01-24T15:49:33;42.20;;;30.20;;
47912;SDS011;33676;51.006;17.180;2023-01-24T15:54:43;45.40;;;31.60;;
47912;SDS011;33676;51.006;17.180;2023-01-24T16:02:35;44.00;;;32.10;;
47912;SDS011;33676;51.006;17.180;2023-01-24T16:05:15;53.20;;;35.30;;
47912;SDS011;33676;51.006;17.180;2023-01-24T16:07:45;47.90;;;33.70;;
47912;SDS011;33676;51.006;17.180;2023-01-24T16:10:14;45.70;;;33.90;;
47912;SDS011;33676;51.006;17.180;2023-01-24T16:12:44;49.60;;;33.70;;
47912;SDS011;33676;51.006;17.180;2023-01-24T16:15:16;53.10;;;36.50;;
47912;SDS011;33676;51.006;17.180;2023-01-24T16:17:49;52.10;;;36.40;;
47912;SDS011;33676;51.006;17.180;2023-01-24T16:20:21;67.20;;;45.70;;
47912;SDS011;33676;51.006;17.180;2023-01-24T16:22:51;69.50;;;48.60;;
47912;SDS011;33676;51.006;17.180;2023-01-24T16:25:20;61.60;;;42.30;;
47912;SDS011;33676;51.006;17.180;2023-01-24T16:27:50;54.60;;;38.40;;
47912;SDS011;33676;51.006;17.180;2023-01-24T16:30:24;55.40;;;38.00;;
47912;SDS011;33676;51.006;17.180;2023-01-24T16:32:54;58.00;;;36.30;;
47912;SDS011;33676;51.006;17.180;2023-01-24T16:35:23;54.40;;;36.30;;
47912;SDS011;33676;51.006;17.180;2023-01-24T16:37:51;50.80;;;35.40;;
47912;SDS011;33676;51.006;17.180;2023-01-24T16:40:20;52.90;;;36.00;;
47912;SDS011;33676;51.006;17.180;2023-01-24T16:42:48;56.00;;;38.10;;
47912;SDS011;33676;51.006;17.180;2023-01-24T16:45:18;58.30;;;42.70;;
47912;SDS011;33676;51.006;17.180;2023-01-24T16:47:47;54.10;;;37.50;;
47912;SDS011;33676;51.006;17.180;2023-01-24T16:50:16;58.90;;;37.30;;
47912;SDS011;33676;51.006;17.180;2023-01-24T16:52:45;56.20;;;37.20;;
47912;SDS011;33676;51.006;17.180;2023-01-24T16:55:13;56.70;;;37.50;;